createdAt,value
2022-09-12T00:02:06.514Z,17.48
2022-09-12T00:04:35.182Z,17.44
2022-09-12T00:07:03.718Z,17.44
2022-09-12T00:09:32.179Z,17.46
2022-09-12T00:12:00.844Z,17.48
2022-09-12T00:14:29.442Z,17.46
2022-09-12T00:17:00.363Z,17.45
2022-09-12T00:19:31.780Z,17.45
2022-09-12T00:22:00.306Z,17.46
2022-09-12T00:24:29.029Z,17.42
2022-09-12T00:26:57.664Z,17.40
2022-09-12T00:29:26.256Z,17.37
2022-09-12T00:31:55.000Z,17.38
2022-09-12T00:34:23.469Z,17.40
2022-09-12T00:36:53.510Z,17.41
2022-09-12T00:39:22.000Z,17.36
2022-09-12T00:41:50.596Z,17.38
2022-09-12T00:44:48.828Z,17.31
2022-09-12T00:47:27.048Z,17.37
2022-09-12T00:50:04.911Z,17.35
2022-09-12T00:52:39.276Z,17.32
2022-09-12T00:55:12.447Z,17.30
2022-09-12T00:57:50.303Z,17.30
2022-09-12T01:00:21.208Z,17.27
2022-09-12T01:02:55.343Z,17.34
2022-09-12T01:05:25.897Z,17.19
2022-09-12T01:07:59.126Z,17.15
2022-09-12T01:10:27.646Z,17.08
2022-09-12T01:12:56.029Z,17.07
2022-09-12T01:15:24.536Z,17.04
2022-09-12T01:18:07.485Z,16.99
2022-09-12T01:20:51.939Z,17.01
2022-09-12T01:24:14.299Z,17.00
2022-09-12T01:27:17.609Z,16.98
2022-09-12T01:30:01.890Z,17.00
2022-09-12T01:32:45.113Z,17.02
2022-09-12T01:35:21.521Z,16.99
2022-09-12T01:38:01.010Z,16.94
2022-09-12T01:40:35.544Z,16.88
2022-09-12T01:43:11.567Z,16.90
2022-09-12T01:45:45.864Z,16.84
2022-09-12T01:48:21.195Z,16.84
2022-09-12T01:50:56.925Z,16.80
2022-09-12T01:53:31.068Z,16.82
2022-09-12T01:56:08.243Z,16.82
2022-09-12T01:58:42.121Z,16.83
2022-09-12T02:01:16.915Z,16.87
2022-09-12T02:03:51.473Z,16.88
2022-09-12T02:06:24.368Z,16.93
2022-09-12T02:08:55.929Z,16.90
2022-09-12T02:11:24.413Z,16.98
2022-09-12T02:13:58.725Z,16.92
2022-09-12T02:16:33.054Z,16.96
2022-09-12T02:19:12.043Z,16.98
2022-09-12T02:21:43.909Z,16.97
2022-09-12T02:24:16.113Z,16.98
2022-09-12T02:26:51.463Z,16.99
2022-09-12T02:29:19.851Z,16.98
2022-09-12T02:31:51.521Z,17.01
2022-09-12T02:34:36.336Z,17.00
2022-09-12T02:37:14.496Z,16.98
2022-09-12T02:39:45.309Z,16.97
2022-09-12T02:42:15.368Z,16.95
2022-09-12T02:44:44.534Z,16.95
2022-09-12T02:47:19.888Z,16.97
2022-09-12T02:49:51.193Z,16.95
2022-09-12T02:52:20.040Z,16.92
2022-09-12T02:54:49.203Z,16.92
2022-09-12T02:57:22.624Z,16.93
2022-09-12T02:59:53.359Z,16.91
2022-09-12T03:02:33.923Z,16.89
2022-09-12T03:05:20.209Z,16.91
2022-09-12T03:08:14.313Z,16.88
2022-09-12T03:10:56.921Z,16.86
2022-09-12T03:13:30.522Z,16.92
2022-09-12T03:16:09.654Z,16.87
2022-09-12T03:18:51.461Z,16.81
2022-09-12T03:21:27.766Z,16.82
2022-09-12T03:24:06.868Z,16.82
2022-09-12T03:26:41.892Z,16.76
2022-09-12T03:29:13.655Z,16.74
2022-09-12T03:31:52.097Z,16.77
2022-09-12T03:34:21.105Z,16.77
2022-09-12T03:36:51.959Z,16.78
2022-09-12T03:39:20.976Z,16.78
2022-09-12T03:41:49.534Z,16.88
2022-09-12T03:44:18.472Z,16.81
2022-09-12T03:46:46.936Z,16.81
2022-09-12T03:49:15.393Z,16.78
2022-09-12T03:51:44.836Z,16.81
2022-09-12T03:54:14.930Z,16.79
2022-09-12T03:56:44.358Z,16.78
2022-09-12T03:59:12.880Z,16.78
2022-09-12T04:01:42.837Z,16.78
2022-09-12T04:04:11.398Z,16.75
2022-09-12T04:06:39.822Z,16.73
2022-09-12T04:09:08.464Z,16.70
2022-09-12T04:11:38.221Z,16.68
2022-09-12T04:14:06.616Z,16.64
2022-09-12T04:16:35.501Z,16.61
2022-09-12T04:19:04.047Z,16.55
2022-09-12T04:21:32.880Z,16.56
2022-09-12T04:24:01.713Z,16.45
2022-09-12T04:26:32.023Z,16.32
2022-09-12T04:29:02.006Z,16.15
2022-09-12T04:31:30.678Z,16.02
2022-09-12T04:34:02.250Z,15.97
2022-09-12T04:36:31.651Z,15.95
2022-09-12T04:39:00.457Z,15.89
2022-09-12T04:41:31.527Z,15.87
2022-09-12T04:44:04.728Z,15.85
2022-09-12T04:46:35.236Z,15.85
2022-09-12T04:49:04.153Z,15.83
2022-09-12T04:51:34.209Z,15.84
2022-09-12T04:54:06.090Z,15.80
2022-09-12T04:56:38.193Z,15.84
2022-09-12T04:59:09.850Z,15.79
2022-09-12T05:01:38.713Z,15.78
2022-09-12T05:04:07.605Z,15.78
2022-09-12T05:06:37.666Z,15.77
2022-09-12T05:09:07.801Z,15.77
2022-09-12T05:12:03.176Z,15.74
2022-09-12T05:14:29.112Z,15.73
2022-09-12T05:17:00.871Z,15.69
2022-09-12T05:19:30.350Z,15.70
2022-09-12T05:22:00.257Z,15.68
2022-09-12T05:24:29.069Z,15.68
2022-09-12T05:26:57.622Z,15.72
2022-09-12T05:29:30.574Z,15.73
2022-09-12T05:31:59.285Z,15.71
2022-09-12T05:34:28.213Z,15.70
2022-09-12T05:36:57.023Z,15.75
2022-09-12T05:39:25.843Z,15.75
2022-09-12T05:41:54.442Z,15.78
2022-09-12T05:44:23.221Z,15.76
2022-09-12T05:46:53.906Z,15.78
2022-09-12T05:49:23.518Z,15.81
2022-09-12T05:51:52.312Z,15.81
2022-09-12T05:54:21.587Z,15.82
2022-09-12T05:56:50.806Z,15.81
2022-09-12T05:59:21.640Z,15.81
2022-09-12T06:01:50.367Z,15.80
2022-09-12T06:04:21.465Z,15.79
2022-09-12T06:06:50.555Z,15.80
2022-09-12T06:09:19.671Z,15.82
2022-09-12T06:11:48.429Z,15.88
2022-09-12T06:14:19.087Z,15.87
2022-09-12T06:16:48.923Z,15.89
2022-09-12T06:19:21.094Z,15.89
2022-09-12T06:21:52.812Z,15.87
2022-09-12T06:24:23.195Z,15.88
2022-09-12T06:26:54.163Z,15.89
2022-09-12T06:29:22.667Z,15.91
2022-09-12T06:31:51.141Z,15.90
2022-09-12T06:34:21.166Z,15.93
2022-09-12T06:36:51.026Z,15.93
2022-09-12T06:39:21.689Z,15.94
2022-09-12T06:41:51.127Z,15.99
2022-09-12T06:44:21.137Z,15.93
2022-09-12T06:46:49.955Z,15.89
2022-09-12T06:49:19.114Z,15.86
2022-09-12T06:51:48.946Z,15.90
2022-09-12T06:54:18.464Z,15.91
2022-09-12T06:56:47.037Z,15.88
2022-09-12T06:59:15.892Z,15.89
2022-09-12T07:01:44.723Z,15.92
2022-09-12T07:04:13.703Z,15.93
2022-09-12T07:06:45.151Z,15.93
2022-09-12T07:09:18.001Z,15.92
2022-09-12T07:11:47.633Z,15.95
2022-09-12T07:14:17.006Z,15.94
2022-09-12T07:16:46.318Z,15.92
2022-09-12T07:19:15.046Z,15.91
2022-09-12T07:21:44.781Z,15.96
2022-09-12T07:24:14.816Z,15.98
2022-09-12T07:26:46.478Z,15.98
2022-09-12T07:29:36.843Z,16.00
2022-09-12T07:32:06.193Z,15.95
2022-09-12T07:34:35.431Z,15.95
2022-09-12T07:37:04.058Z,16.02
2022-09-12T07:39:34.715Z,16.04
2022-09-12T07:42:03.602Z,16.07
2022-09-12T07:44:33.496Z,16.12
2022-09-12T07:47:03.413Z,16.20
2022-09-12T07:49:31.901Z,16.24
2022-09-12T07:52:00.170Z,16.32
2022-09-12T07:54:28.736Z,16.43
2022-09-12T07:56:58.475Z,16.59
2022-09-12T07:59:48.858Z,16.70
2022-09-12T08:02:17.870Z,16.72
2022-09-12T08:04:48.471Z,16.74
2022-09-12T08:07:18.811Z,16.72
2022-09-12T08:09:47.659Z,16.81
2022-09-12T08:12:21.383Z,16.82
2022-09-12T08:14:49.811Z,16.88
2022-09-12T08:17:18.534Z,16.98
2022-09-12T08:19:47.088Z,17.04
2022-09-12T08:22:16.500Z,17.17
2022-09-12T08:24:44.991Z,17.26
2022-09-12T08:27:13.277Z,17.27
2022-09-12T08:29:43.637Z,17.16
2022-09-12T08:32:12.393Z,17.10
2022-09-12T08:34:41.745Z,17.02
2022-09-12T08:37:10.724Z,16.99
2022-09-12T08:39:39.624Z,17.03
2022-09-12T08:42:08.624Z,16.97
2022-09-12T08:45:06.110Z,16.95
2022-09-12T08:47:38.358Z,16.95
2022-09-12T08:50:16.006Z,16.98
2022-09-12T08:52:52.373Z,16.95
2022-09-12T08:55:33.897Z,16.97
2022-09-12T08:58:04.651Z,16.99
2022-09-12T09:00:45.279Z,17.01
2022-09-12T09:03:37.984Z,17.06
2022-09-12T09:06:14.914Z,17.11
2022-09-12T09:08:52.713Z,17.08
2022-09-12T09:11:38.527Z,17.14
2022-09-12T09:14:39.252Z,17.09
2022-09-12T09:17:14.143Z,17.17
2022-09-12T09:19:51.037Z,17.33
2022-09-12T09:22:29.222Z,17.47
2022-09-12T09:25:06.210Z,17.61
2022-09-12T09:27:41.460Z,17.69
2022-09-12T09:30:17.967Z,17.58
2022-09-12T09:32:53.767Z,17.63
2022-09-12T09:35:36.707Z,17.69
2022-09-12T09:38:19.612Z,17.73
2022-09-12T09:41:00.505Z,17.88
2022-09-12T09:43:29.285Z,18.11
2022-09-12T09:46:00.789Z,18.23
2022-09-12T09:48:34.785Z,18.22
2022-09-12T09:51:07.558Z,18.46
2022-09-12T09:53:42.734Z,18.31
2022-09-12T09:56:18.390Z,18.36
2022-09-12T09:58:48.910Z,18.33
2022-09-12T10:01:20.260Z,18.22
2022-09-12T10:03:55.360Z,18.16
2022-09-12T10:06:35.019Z,18.27
2022-09-12T10:09:18.086Z,18.20
2022-09-12T10:11:47.517Z,18.02
2022-09-12T10:14:38.141Z,17.84
2022-09-12T10:17:34.126Z,17.65
2022-09-12T10:20:21.974Z,17.62
2022-09-12T10:22:51.206Z,17.50
2022-09-12T10:25:21.893Z,17.46
2022-09-12T10:27:56.783Z,17.62
2022-09-12T10:30:28.816Z,17.49
2022-09-12T10:33:07.563Z,17.48
2022-09-12T10:35:50.341Z,17.48
2022-09-12T10:38:25.841Z,17.53
2022-09-12T10:41:01.709Z,17.65
2022-09-12T10:43:35.977Z,17.76
2022-09-12T10:46:23.913Z,17.98
2022-09-12T10:48:53.829Z,18.12
2022-09-12T10:51:30.833Z,18.17
2022-09-12T10:54:01.193Z,18.21
2022-09-12T10:56:32.780Z,18.15
2022-09-12T10:59:20.480Z,18.22
2022-09-12T11:01:51.184Z,18.31
2022-09-12T11:04:30.192Z,18.17
2022-09-12T11:07:16.460Z,18.12
2022-09-12T11:09:54.995Z,18.07
2022-09-12T11:12:31.307Z,18.03
2022-09-12T11:15:13.684Z,17.97
2022-09-12T11:17:53.836Z,18.01
2022-09-12T11:20:55.693Z,17.96
2022-09-12T11:23:47.252Z,18.07
2022-09-12T11:26:28.189Z,18.08
2022-09-12T11:29:08.995Z,17.99
2022-09-12T11:32:04.528Z,18.01
2022-09-12T11:34:46.202Z,18.18
2022-09-12T11:37:30.434Z,18.34
2022-09-12T11:40:11.388Z,18.33
2022-09-12T11:42:42.744Z,18.34
2022-09-12T11:45:18.518Z,18.43
2022-09-12T11:47:52.398Z,18.58
2022-09-12T11:50:27.129Z,18.66
2022-09-12T11:53:02.146Z,18.75
2022-09-12T11:55:41.071Z,18.67
2022-09-12T11:58:10.827Z,18.51
2022-09-12T12:00:46.263Z,18.50
2022-09-12T12:03:19.846Z,18.37
2022-09-12T12:05:54.646Z,18.40
2022-09-12T12:08:25.045Z,18.30
2022-09-12T12:10:58.344Z,18.25
2022-09-12T12:13:31.747Z,18.11
2022-09-12T12:16:05.136Z,17.96
2022-09-12T12:18:36.427Z,17.97
2022-09-12T12:21:31.507Z,17.89
2022-09-12T12:24:15.799Z,17.65
2022-09-12T12:26:57.784Z,17.51
2022-09-12T12:29:45.050Z,17.26
2022-09-12T12:32:29.062Z,17.19
2022-09-12T12:35:40.328Z,17.05
2022-09-12T12:38:31.461Z,17.02
2022-09-12T12:41:42.490Z,17.00
2022-09-12T12:44:47.795Z,16.98
2022-09-12T12:47:22.044Z,17.02
2022-09-12T12:49:54.221Z,17.05
2022-09-12T12:52:23.495Z,17.15
2022-09-12T12:54:56.887Z,17.18
2022-09-12T12:57:31.973Z,17.22
2022-09-12T13:00:04.993Z,17.28
2022-09-12T13:02:39.089Z,17.26
2022-09-12T13:05:19.193Z,17.24
2022-09-12T13:07:49.609Z,17.25
2022-09-12T13:10:29.096Z,17.26
2022-09-12T13:12:58.928Z,17.30
2022-09-12T13:15:50.653Z,17.34
2022-09-12T13:18:28.191Z,17.34
2022-09-12T13:21:06.032Z,17.25
2022-09-12T13:23:35.362Z,17.23
2022-09-12T13:26:05.293Z,17.18
2022-09-12T13:28:34.253Z,17.24
2022-09-12T13:31:10.694Z,17.21
2022-09-12T13:33:44.532Z,17.14
2022-09-12T13:36:30.486Z,17.11
2022-09-12T13:39:11.945Z,17.10
2022-09-12T13:42:00.540Z,17.03
2022-09-12T13:44:30.779Z,17.05
2022-09-12T13:47:02.637Z,17.07
2022-09-12T13:49:37.417Z,17.12
2022-09-12T13:52:08.839Z,17.11
2022-09-12T13:54:41.319Z,17.08
2022-09-12T13:57:29.779Z,17.14
2022-09-12T13:59:59.434Z,17.16
2022-09-12T14:02:31.637Z,17.10
2022-09-12T14:05:10.907Z,17.11
2022-09-12T14:07:52.672Z,17.15
2022-09-12T14:10:28.597Z,17.19
2022-09-12T14:12:58.974Z,17.28
2022-09-12T14:15:30.787Z,17.40
2022-09-12T14:18:02.500Z,17.47
2022-09-12T14:20:37.520Z,17.53
2022-09-12T14:23:19.392Z,17.53
2022-09-12T14:25:48.177Z,17.41
2022-09-12T14:28:23.601Z,17.31
2022-09-12T14:31:07.464Z,17.20
2022-09-12T14:33:49.133Z,17.11
2022-09-12T14:36:24.932Z,17.09
2022-09-12T14:38:57.319Z,16.85
2022-09-12T14:41:32.066Z,16.78
2022-09-12T14:44:04.034Z,16.75
2022-09-12T14:46:36.779Z,16.79
2022-09-12T14:49:12.018Z,16.83
2022-09-12T14:51:54.221Z,16.92
2022-09-12T14:54:42.964Z,16.95
2022-09-12T14:57:46.454Z,16.75
2022-09-12T15:00:22.570Z,16.62
2022-09-12T15:02:52.514Z,16.67
2022-09-12T15:05:24.689Z,16.70
2022-09-12T15:07:58.560Z,16.70
2022-09-12T15:10:31.643Z,16.69
2022-09-12T15:13:16.313Z,16.44
2022-09-12T15:15:46.432Z,16.52
2022-09-12T15:18:15.329Z,16.53
2022-09-12T15:20:45.755Z,16.50
2022-09-12T15:23:28.971Z,16.55
2022-09-12T15:25:58.097Z,16.52
2022-09-12T15:28:28.147Z,16.41
2022-09-12T15:30:58.912Z,16.31
2022-09-12T15:33:27.480Z,16.28
2022-09-12T15:35:56.228Z,16.35
2022-09-12T15:38:26.952Z,16.22
2022-09-12T15:40:56.460Z,16.25
2022-09-12T15:43:26.602Z,16.34
2022-09-12T15:45:55.203Z,16.40
2022-09-12T15:48:24.356Z,16.35
2022-09-12T15:50:53.184Z,16.35
2022-09-12T15:53:21.567Z,16.43
2022-09-12T15:55:51.617Z,16.30
2022-09-12T15:58:20.249Z,16.32
2022-09-12T16:00:48.877Z,16.23
2022-09-12T16:03:24.190Z,16.28
2022-09-12T16:05:57.714Z,16.23
2022-09-12T16:08:27.232Z,16.06
2022-09-12T16:10:59.861Z,16.17
2022-09-12T16:13:28.919Z,16.15
2022-09-12T16:15:59.096Z,16.24
2022-09-12T16:18:28.306Z,16.17
2022-09-12T16:20:57.802Z,16.28
2022-09-12T16:23:26.790Z,16.11
2022-09-12T16:26:00.677Z,16.10
2022-09-12T16:28:29.768Z,16.10
2022-09-12T16:30:59.637Z,15.95
2022-09-12T16:33:28.819Z,15.86
2022-09-12T16:36:03.571Z,15.99
2022-09-12T16:38:36.172Z,16.10
2022-09-12T16:41:08.042Z,16.09
2022-09-12T16:43:37.251Z,16.14
2022-09-12T16:46:07.820Z,16.10
2022-09-12T16:48:39.327Z,16.22
2022-09-12T16:51:08.283Z,16.34
2022-09-12T16:53:39.598Z,16.28
2022-09-12T16:56:10.800Z,16.24
2022-09-12T16:58:42.367Z,16.25
2022-09-12T17:01:13.380Z,16.30
2022-09-12T17:03:42.175Z,16.26
2022-09-12T17:06:12.831Z,16.26
2022-09-12T17:08:44.227Z,16.25
2022-09-12T17:11:16.586Z,16.17
2022-09-12T17:14:06.437Z,16.12
2022-09-12T17:16:37.008Z,16.18
2022-09-12T17:19:06.507Z,16.11
2022-09-12T17:21:36.712Z,16.24
2022-09-12T17:24:05.694Z,16.24
2022-09-12T17:26:35.702Z,16.22
2022-09-12T17:29:04.438Z,16.23
2022-09-12T17:31:33.668Z,16.26
2022-09-12T17:34:03.388Z,16.22
2022-09-12T17:36:33.040Z,16.18
2022-09-12T17:39:03.871Z,16.18
2022-09-12T17:41:34.554Z,16.20
2022-09-12T17:44:03.923Z,16.22
2022-09-12T17:46:36.057Z,16.21
2022-09-12T17:49:07.214Z,16.18
2022-09-12T17:51:36.675Z,16.20
2022-09-12T17:54:08.816Z,16.17
2022-09-12T17:56:40.463Z,16.15
2022-09-12T17:59:10.803Z,16.12
2022-09-12T18:01:58.955Z,16.12
2022-09-12T18:04:28.106Z,16.09
2022-09-12T18:07:00.706Z,16.07
2022-09-12T18:09:31.177Z,16.08
2022-09-12T18:12:02.191Z,16.04
2022-09-12T18:14:31.053Z,16.00
2022-09-12T18:17:00.672Z,16.00
2022-09-12T18:19:30.763Z,15.98
2022-09-12T18:21:59.864Z,15.97
2022-09-12T18:24:28.471Z,15.92
2022-09-12T18:26:58.746Z,15.91
2022-09-12T18:29:31.697Z,15.92
2022-09-12T18:32:00.477Z,15.87
2022-09-12T18:34:29.107Z,15.89
2022-09-12T18:36:57.541Z,15.89
2022-09-12T18:39:28.013Z,15.86
2022-09-12T18:41:58.692Z,15.87
2022-09-12T18:44:30.340Z,15.84
2022-09-12T18:46:58.821Z,15.86
2022-09-12T18:49:27.482Z,15.87
2022-09-12T18:51:57.220Z,15.86
2022-09-12T18:54:25.604Z,15.85
2022-09-12T18:56:54.181Z,15.78
2022-09-12T18:59:22.692Z,15.74
2022-09-12T19:01:53.133Z,15.71
2022-09-12T19:04:22.635Z,15.70
2022-09-12T19:06:57.062Z,15.70
2022-09-12T19:09:25.867Z,15.66
2022-09-12T19:11:54.198Z,15.65
2022-09-12T19:14:25.123Z,15.63
2022-09-12T19:16:55.438Z,15.61
2022-09-12T19:19:23.907Z,15.59
2022-09-12T19:21:52.634Z,15.55
2022-09-12T19:24:22.152Z,15.52
2022-09-12T19:26:52.223Z,15.49
2022-09-12T19:29:21.087Z,15.41
2022-09-12T19:31:49.850Z,15.34
2022-09-12T19:34:20.117Z,15.26
2022-09-12T19:36:54.893Z,15.19
2022-09-12T19:39:24.338Z,15.12
2022-09-12T19:41:53.117Z,15.04
2022-09-12T19:44:22.385Z,15.02
2022-09-12T19:46:51.264Z,15.00
2022-09-12T19:49:21.602Z,14.98
2022-09-12T19:51:50.614Z,14.97
2022-09-12T19:54:19.345Z,14.94
2022-09-12T19:56:47.871Z,14.92
2022-09-12T19:59:16.321Z,14.89
2022-09-12T20:01:44.957Z,14.81
2022-09-12T20:04:14.372Z,14.79
2022-09-12T20:06:44.520Z,14.76
2022-09-12T20:09:13.367Z,14.74
2022-09-12T20:11:41.929Z,14.69
2022-09-12T20:14:10.383Z,14.64
2022-09-12T20:16:39.572Z,14.61
2022-09-12T20:19:09.952Z,14.61
2022-09-12T20:21:38.788Z,14.60
2022-09-12T20:24:12.146Z,14.54
2022-09-12T20:26:41.014Z,14.53
2022-09-12T20:29:10.798Z,14.49
2022-09-12T20:31:41.810Z,14.43
2022-09-12T20:34:16.547Z,14.42
2022-09-12T20:36:45.314Z,14.43
2022-09-12T20:39:17.235Z,14.44
2022-09-12T20:41:46.666Z,14.48
2022-09-12T20:44:15.874Z,14.47
2022-09-12T20:46:44.345Z,14.46
2022-09-12T20:49:13.013Z,14.47
2022-09-12T20:51:42.733Z,14.49
2022-09-12T20:54:12.714Z,14.49
2022-09-12T20:56:43.865Z,14.47
2022-09-12T20:59:13.858Z,14.47
2022-09-12T21:01:42.214Z,14.49
2022-09-12T21:04:14.798Z,14.52
2022-09-12T21:06:43.576Z,14.50
2022-09-12T21:09:11.964Z,14.51
2022-09-12T21:11:42.604Z,14.47
2022-09-12T21:14:11.057Z,14.44
2022-09-12T21:16:40.051Z,14.37
2022-09-12T21:19:08.848Z,14.28
2022-09-12T21:21:38.075Z,14.20
2022-09-12T21:24:07.700Z,14.07
2022-09-12T21:26:36.841Z,14.01
2022-09-12T21:29:07.336Z,13.95
2022-09-12T21:31:36.130Z,13.90
2022-09-12T21:34:04.829Z,13.85
2022-09-12T21:36:33.893Z,13.77
2022-09-12T21:39:03.209Z,13.70
2022-09-12T21:41:34.182Z,13.67
2022-09-12T21:44:04.363Z,13.67
2022-09-12T21:46:35.147Z,13.66
2022-09-12T21:49:04.974Z,13.60
2022-09-12T21:51:33.721Z,13.55
2022-09-12T21:54:02.100Z,13.44
2022-09-12T21:56:31.662Z,13.51
2022-09-12T21:59:00.288Z,13.43
2022-09-12T22:01:29.150Z,13.42
2022-09-12T22:03:59.465Z,13.41
2022-09-12T22:06:27.904Z,13.36
2022-09-12T22:08:56.419Z,13.35
2022-09-12T22:11:25.196Z,13.34
2022-09-12T22:13:54.922Z,13.33
2022-09-12T22:16:24.867Z,13.29
2022-09-12T22:18:54.300Z,13.24
2022-09-12T22:21:25.580Z,13.20
2022-09-12T22:24:11.141Z,13.17
2022-09-12T22:26:43.801Z,13.10
2022-09-12T22:29:13.624Z,13.07
2022-09-12T22:31:42.830Z,12.98
2022-09-12T22:34:12.040Z,12.95
2022-09-12T22:36:43.130Z,12.93
2022-09-12T22:39:12.890Z,12.89
2022-09-12T22:41:41.296Z,12.84
2022-09-12T22:44:10.681Z,12.80
2022-09-12T22:46:39.655Z,12.79
2022-09-12T22:49:08.946Z,12.72
2022-09-12T22:51:37.779Z,12.69
2022-09-12T22:54:08.334Z,12.65
2022-09-12T22:56:36.812Z,12.62
2022-09-12T22:59:05.304Z,12.53
2022-09-12T23:01:35.517Z,12.55
2022-09-12T23:04:05.288Z,12.53
2022-09-12T23:06:33.707Z,12.58
2022-09-12T23:09:03.874Z,12.52
2022-09-12T23:11:34.146Z,12.43
2022-09-12T23:14:02.587Z,12.39
2022-09-12T23:16:32.341Z,12.39
2022-09-12T23:19:00.860Z,12.35
2022-09-12T23:21:30.657Z,12.35
2022-09-12T23:23:59.443Z,12.32
2022-09-12T23:26:30.341Z,12.24
2022-09-12T23:29:01.995Z,12.23
2022-09-12T23:31:33.028Z,12.21
2022-09-12T23:34:03.391Z,12.15
2022-09-12T23:36:32.134Z,12.15
2022-09-12T23:39:00.539Z,12.11
2022-09-12T23:41:29.810Z,12.10
2022-09-12T23:44:00.809Z,12.07
2022-09-12T23:46:29.457Z,12.07
2022-09-12T23:48:57.808Z,12.03
2022-09-12T23:51:27.223Z,12.00
2022-09-12T23:53:55.761Z,12.03
2022-09-12T23:56:24.256Z,11.99
2022-09-12T23:58:52.758Z,11.95
